Time,TemperatureF,DewpointF,PressureIn,WindDirection,WindDirectionDegrees,WindSpeedMPH,WindSpeedGustMPH,Humidity,HourlyPrecipIn,Conditions,Clouds,dailyrainin,SoftwareType,DateUTC
2013-03-03 00:02:00,34.7,15.4,30.14,North,359,0.0,4.0,45,0.00,,,0.00,meteohub,2013-03-03 07:02:00,
2013-03-03 00:07:00,34.5,15.4,30.14,ENE,58,2.0,2.0,45,0.00,,,0.00,meteohub,2013-03-03 07:07:00,
2013-03-03 00:12:00,34.2,16.0,30.14,NNW,334,2.0,2.0,47,0.00,,,0.00,meteohub,2013-03-03 07:12:00,
2013-03-03 00:17:00,33.6,15.6,30.14,NW,316,0.0,3.0,47,0.00,,,0.00,meteohub,2013-03-03 07:17:00,
2013-03-03 00:22:00,33.6,16.0,30.14,North,6,0.0,3.0,48,0.00,,,0.00,meteohub,2013-03-03 07:22:00,
2013-03-03 00:27:00,34.0,15.8,30.13,NNW,339,1.0,3.0,47,0.00,,,0.00,meteohub,2013-03-03 07:27:00,
2013-03-03 00:32:00,34.0,15.8,30.13,West,263,0.0,2.0,47,0.00,,,0.00,meteohub,2013-03-03 07:32:00,
2013-03-03 00:37:00,34.0,15.8,30.13,West,267,1.0,2.0,47,0.00,,,0.00,meteohub,2013-03-03 07:37:00,
2013-03-03 00:42:00,33.6,16.0,30.13,NW,306,2.0,2.0,48,0.00,,,0.00,meteohub,2013-03-03 07:42:00,
2013-03-03 00:47:00,33.1,16.0,30.12,WNW,286,0.0,4.0,49,0.00,,,0.00,meteohub,2013-03-03 07:47:00,
2013-03-03 00:52:00,33.6,16.0,30.12,NNE,16,0.0,4.0,48,0.00,,,0.00,meteohub,2013-03-03 07:52:00,
2013-03-03 00:57:00,34.0,15.8,30.12,WNW,300,1.0,4.0,47,0.00,,,0.00,meteohub,2013-03-03 07:57:00,
2013-03-03 01:02:00,34.3,15.6,30.11,WNW,287,0.0,2.0,46,0.00,,,0.00,meteohub,2013-03-03 08:02:00,
2013-03-03 01:07:00,34.3,15.6,30.11,NNW,337,2.0,2.0,46,0.00,,,0.00,meteohub,2013-03-03 08:07:00,
2013-03-03 01:12:00,33.1,16.0,30.12,WNW,287,1.0,2.0,49,0.00,,,0.00,meteohub,2013-03-03 08:12:00,
2013-03-03 01:17:00,33.1,16.0,30.11,SE,146,1.0,6.0,49,0.00,,,0.00,meteohub,2013-03-03 08:17:00,
2013-03-03 01:22:00,33.3,16.2,30.11,WSW,252,0.0,6.0,49,0.00,,,0.00,meteohub,2013-03-03 08:22:00,
2013-03-03 01:27:00,32.9,16.3,30.11,South,174,3.0,6.0,50,0.00,,,0.00,meteohub,2013-03-03 08:27:00,
2013-03-03 01:32:00,32.9,15.8,30.10,SE,146,0.0,4.0,49,0.00,,,0.00,meteohub,2013-03-03 08:32:00,
2013-03-03 01:37:00,33.1,16.0,30.10,West,271,3.0,4.0,49,0.00,,,0.00,meteohub,2013-03-03 08:37:00,
2013-03-03 01:43:00,33.6,16.0,30.10,WSW,253,0.0,6.0,48,0.00,,,0.00,meteohub,2013-03-03 08:43:00,
2013-03-03 01:48:00,35.1,15.8,30.09,SSE,160,1.0,6.0,45,0.00,,,0.00,meteohub,2013-03-03 08:48:00,
2013-03-03 01:54:00,34.0,15.8,30.09,WNW,283,3.0,6.0,47,0.00,,,0.00,meteohub,2013-03-03 08:54:00,
2013-03-03 01:59:00,34.2,15.6,30.09,NW,312,1.0,4.0,46,0.00,,,0.00,meteohub,2013-03-03 08:59:00,
2013-03-03 02:05:00,34.0,15.8,30.08,WNW,298,2.0,4.0,47,0.00,,,0.00,meteohub,2013-03-03 09:05:00,
2013-03-03 02:10:00,32.7,15.3,30.08,WNW,300,3.0,4.0,48,0.00,,,0.00,meteohub,2013-03-03 09:10:00,
2013-03-03 02:16:00,32.9,15.8,30.07,NNW,336,2.0,7.0,49,0.00,,,0.00,meteohub,2013-03-03 09:16:00,
2013-03-03 02:21:00,32.2,15.6,30.07,NW,319,0.0,7.0,50,0.00,,,0.00,meteohub,2013-03-03 09:21:00,
2013-03-03 02:27:00,31.8,15.3,30.06,NNW,328,2.0,7.0,50,0.00,,,0.00,meteohub,2013-03-03 09:27:00,
2013-03-03 02:32:00,31.3,15.3,30.05,WNW,298,2.0,4.0,51,0.00,,,0.00,meteohub,2013-03-03 09:32:00,
2013-03-03 02:37:00,30.9,15.4,30.04,WNW,298,2.0,4.0,52,0.00,,,0.00,meteohub,2013-03-03 09:37:00,
2013-03-03 02:42:00,31.6,15.6,30.04,WNW,295,2.0,4.0,51,0.00,,,0.00,meteohub,2013-03-03 09:42:00,
2013-03-03 02:47:00,31.6,15.6,30.03,West,276,2.0,4.0,51,0.00,,,0.00,meteohub,2013-03-03 09:47:00,
2013-03-03 02:52:00,31.8,15.3,30.03,WNW,302,4.0,5.0,50,0.00,,,0.00,meteohub,2013-03-03 09:52:00,
2013-03-03 02:57:00,32.0,15.4,30.02,West,274,1.0,5.0,50,0.00,,,0.00,meteohub,2013-03-03 09:57:00,
2013-03-03 03:02:00,32.7,15.3,30.03,NW,316,3.0,5.0,48,0.00,,,0.00,meteohub,2013-03-03 10:02:00,
2013-03-03 03:07:00,31.6,15.1,30.03,NW,309,2.0,5.0,50,0.00,,,0.00,meteohub,2013-03-03 10:07:00,
2013-03-03 03:12:00,32.0,15.1,30.02,WNW,285,2.0,5.0,49,0.00,,,0.00,meteohub,2013-03-03 10:12:00,
2013-03-03 03:17:00,32.5,15.1,30.02,NW,321,2.0,5.0,48,0.00,,,0.00,meteohub,2013-03-03 10:17:00,
2013-03-03 03:22:00,32.7,15.3,30.01,NNW,332,4.0,4.0,48,0.00,,,0.00,meteohub,2013-03-03 10:22:00,
2013-03-03 03:27:00,32.9,14.9,30.01,NNW,333,2.0,5.0,47,0.00,,,0.00,meteohub,2013-03-03 10:27:00,
2013-03-03 03:32:00,32.9,14.9,30.00,NW,314,1.0,5.0,47,0.00,,,0.00,meteohub,2013-03-03 10:32:00,
2013-03-03 03:37:00,32.7,14.7,30.00,WNW,303,1.0,5.0,47,0.00,,,0.00,meteohub,2013-03-03 10:37:00,
2013-03-03 03:42:00,32.5,15.1,30.00,WNW,290,0.0,5.0,48,0.00,,,0.00,meteohub,2013-03-03 10:42:00,
2013-03-03 03:47:00,32.9,14.9,29.99,West,277,4.0,4.0,47,0.00,,,0.00,meteohub,2013-03-03 10:47:00,
2013-03-03 03:52:00,33.3,14.7,29.99,WNW,297,2.0,5.0,46,0.00,,,0.00,meteohub,2013-03-03 10:52:00,
2013-03-03 03:57:00,33.4,14.9,29.99,NW,307,1.0,5.0,46,0.00,,,0.00,meteohub,2013-03-03 10:57:00,
2013-03-03 04:02:00,34.0,14.9,29.98,WNW,283,1.0,5.0,45,0.00,,,0.00,meteohub,2013-03-03 11:02:00,
2013-03-03 04:07:00,34.2,14.5,29.99,WNW,293,2.0,4.0,44,0.00,,,0.00,meteohub,2013-03-03 11:07:00,
2013-03-03 04:12:00,34.5,14.4,29.98,West,270,0.0,4.0,43,0.00,,,0.00,meteohub,2013-03-03 11:12:00,
2013-03-03 04:17:00,34.3,13.6,29.98,West,271,0.0,4.0,42,0.00,,,0.00,meteohub,2013-03-03 11:17:00,
2013-03-03 04:22:00,33.6,14.0,29.97,WSW,243,2.0,4.0,44,0.00,,,0.00,meteohub,2013-03-03 11:22:00,
2013-03-03 04:27:00,34.2,14.0,29.96,SW,230,0.0,5.0,43,0.00,,,0.00,meteohub,2013-03-03 11:27:00,
2013-03-03 04:33:00,34.3,13.6,29.96,WNW,293,3.0,5.0,42,0.00,,,0.00,meteohub,2013-03-03 11:33:00,
2013-03-03 04:38:00,33.1,13.5,29.96,SW,224,6.0,6.0,44,0.00,,,0.00,meteohub,2013-03-03 11:38:00,
2013-03-03 04:44:00,34.9,14.2,29.95,East,94,2.0,8.0,42,0.00,,,0.00,meteohub,2013-03-03 11:44:00,
2013-03-03 04:49:00,35.1,13.6,29.96,SSW,199,0.0,8.0,41,0.00,,,0.00,meteohub,2013-03-03 11:49:00,
2013-03-03 04:55:00,34.5,13.3,29.96,NW,308,1.0,7.0,41,0.00,,,0.00,meteohub,2013-03-03 11:55:00,
2013-03-03 05:00:00,33.3,13.1,29.94,ENE,71,4.0,5.0,43,0.00,,,0.00,meteohub,2013-03-03 12:00:00,
2013-03-03 05:06:00,34.2,13.5,29.94,SE,133,1.0,5.0,42,0.00,,,0.00,meteohub,2013-03-03 12:06:00,
2013-03-03 05:11:00,34.5,13.8,29.94,East,99,2.0,5.0,42,0.00,,,0.00,meteohub,2013-03-03 12:11:00,
2013-03-03 05:17:00,34.9,13.6,29.94,SE,138,6.0,6.0,41,0.00,,,0.00,meteohub,2013-03-03 12:17:00,
2013-03-03 05:22:00,34.0,13.3,29.94,ESE,109,3.0,8.0,42,0.00,,,0.00,meteohub,2013-03-03 12:22:00,
2013-03-03 05:27:00,33.8,13.1,29.94,SSE,148,5.0,8.0,42,0.00,,,0.00,meteohub,2013-03-03 12:27:00,
2013-03-03 05:32:00,33.4,13.3,29.94,South,172,1.0,8.0,43,0.00,,,0.00,meteohub,2013-03-03 12:32:00,
2013-03-03 05:37:00,33.6,13.5,29.93,ESE,115,3.0,7.0,43,0.00,,,0.00,meteohub,2013-03-03 12:37:00,
2013-03-03 05:42:00,33.6,13.5,29.93,East,101,1.0,7.0,43,0.00,,,0.00,meteohub,2013-03-03 12:42:00,
2013-03-03 05:47:00,33.4,12.7,29.92,ESE,119,9.0,9.0,42,0.00,,,0.00,meteohub,2013-03-03 12:47:00,
2013-03-03 05:52:00,34.0,13.3,29.93,NW,305,2.0,10.0,42,0.00,,,0.00,meteohub,2013-03-03 12:52:00,
2013-03-03 05:57:00,33.3,13.1,29.92,East,87,1.0,10.0,43,0.00,,,0.00,meteohub,2013-03-03 12:57:00,
2013-03-03 06:02:00,34.3,13.1,29.91,East,82,5.0,10.0,41,0.00,,,0.00,meteohub,2013-03-03 13:02:00,
2013-03-03 06:07:00,34.0,13.3,29.91,WNW,291,0.0,7.0,42,0.00,,,0.00,meteohub,2013-03-03 13:07:00,
2013-03-03 06:12:00,33.3,12.6,29.91,South,191,2.0,7.0,42,0.00,,,0.00,meteohub,2013-03-03 13:12:00,
2013-03-03 06:17:00,33.6,12.9,29.90,ESE,120,2.0,7.0,42,0.00,,,0.00,meteohub,2013-03-03 13:17:00,
2013-03-03 06:22:00,34.3,13.1,29.91,East,94,0.0,5.0,41,0.00,,,0.00,meteohub,2013-03-03 13:22:00,
2013-03-03 06:27:00,34.9,12.9,29.90,SE,128,6.0,6.0,40,0.00,,,0.00,meteohub,2013-03-03 13:27:00,
2013-03-03 06:32:00,34.5,13.3,29.90,SW,232,2.0,7.0,41,0.00,,,0.00,meteohub,2013-03-03 13:32:00,
2013-03-03 06:37:00,34.9,12.9,29.88,ESE,108,4.0,7.0,40,0.00,,,0.00,meteohub,2013-03-03 13:37:00,
2013-03-03 06:42:00,35.1,13.1,29.88,ESE,103,2.0,7.0,40,0.00,,,0.00,meteohub,2013-03-03 13:42:00,
2013-03-03 06:47:00,35.1,13.1,29.88,East,84,1.0,6.0,40,0.00,,,0.00,meteohub,2013-03-03 13:47:00,
2013-03-03 06:52:00,34.7,12.9,29.89,SE,135,1.0,6.0,40,0.00,,,0.00,meteohub,2013-03-03 13:52:00,
2013-03-03 06:57:00,34.7,12.9,29.89,West,263,1.0,5.0,40,0.00,,,0.00,meteohub,2013-03-03 13:57:00,
2013-03-03 07:02:00,35.2,13.3,29.88,WSW,244,0.0,4.0,40,0.00,,,0.00,meteohub,2013-03-03 14:02:00,
2013-03-03 07:07:00,36.3,13.1,29.88,ENE,70,2.0,4.0,38,0.00,,,0.00,meteohub,2013-03-03 14:07:00,
2013-03-03 07:12:00,36.9,13.1,29.88,East,81,4.0,4.0,37,0.00,,,0.00,meteohub,2013-03-03 14:12:00,
2013-03-03 07:17:00,37.2,12.7,29.88,ESE,120,4.0,8.0,36,0.00,,,0.00,meteohub,2013-03-03 14:17:00,
2013-03-03 07:22:00,37.6,13.1,29.88,ENE,77,3.0,8.0,36,0.00,,,0.00,meteohub,2013-03-03 14:22:00,
2013-03-03 07:27:00,38.7,13.3,29.88,East,98,8.0,8.0,35,0.00,,,0.00,meteohub,2013-03-03 14:27:00,
2013-03-03 07:32:00,39.9,13.8,29.87,SE,135,4.0,8.0,34,0.00,,,0.00,meteohub,2013-03-03 14:32:00,
2013-03-03 07:37:00,40.5,13.6,29.88,ESE,117,2.0,11.0,33,0.00,,,0.00,meteohub,2013-03-03 14:37:00,
2013-03-03 07:42:00,40.6,13.8,29.87,SSE,156,6.0,11.0,33,0.00,,,0.00,meteohub,2013-03-03 14:42:00,
2013-03-03 07:47:00,39.4,14.0,29.86,SSE,153,5.0,11.0,35,0.00,,,0.00,meteohub,2013-03-03 14:47:00,
2013-03-03 07:52:00,38.8,13.5,29.87,SW,217,6.0,13.0,35,0.00,,,0.00,meteohub,2013-03-03 14:52:00,
2013-03-03 07:57:00,38.5,13.8,29.87,NE,43,6.0,13.0,36,0.00,,,0.00,meteohub,2013-03-03 14:57:00,
2013-03-03 08:02:00,38.7,13.3,29.86,SE,132,3.0,12.0,35,0.00,,,0.00,meteohub,2013-03-03 15:02:00,
2013-03-03 08:07:00,39.7,14.4,29.86,SE,129,4.0,9.0,35,0.00,,,0.00,meteohub,2013-03-03 15:07:00,
2013-03-03 08:12:00,40.8,14.5,29.87,SE,140,4.0,9.0,34,0.00,,,0.00,meteohub,2013-03-03 15:12:00,
2013-03-03 08:17:00,41.4,14.4,29.86,SE,144,7.0,10.0,33,0.00,,,0.00,meteohub,2013-03-03 15:17:00,
2013-03-03 08:22:00,41.5,14.5,29.86,SSE,159,3.0,10.0,33,0.00,,,0.00,meteohub,2013-03-03 15:22:00,
2013-03-03 08:27:00,42.4,15.4,29.86,SSE,156,3.0,11.0,33,0.00,,,0.00,meteohub,2013-03-03 15:27:00,
2013-03-03 08:32:00,43.2,15.3,29.85,SSE,156,7.0,11.0,32,0.00,,,0.00,meteohub,2013-03-03 15:32:00,
2013-03-03 08:37:00,43.5,15.6,29.85,SE,141,10.0,11.0,32,0.00,,,0.00,meteohub,2013-03-03 15:37:00,
2013-03-03 08:42:00,44.2,16.2,29.85,SW,229,4.0,12.0,32,0.00,,,0.00,meteohub,2013-03-03 15:42:00,
2013-03-03 08:47:00,45.1,14.0,29.84,SE,146,3.0,12.0,28,0.00,,,0.00,meteohub,2013-03-03 15:47:00,
2013-03-03 08:52:00,45.7,15.3,29.84,ESE,115,8.0,13.0,29,0.00,,,0.00,meteohub,2013-03-03 15:52:00,
2013-03-03 08:57:00,46.6,14.4,29.83,ESE,108,4.0,13.0,27,0.00,,,0.00,meteohub,2013-03-03 15:57:00,
2013-03-03 09:02:00,46.6,12.6,29.83,ESE,118,5.0,13.0,25,0.00,,,0.00,meteohub,2013-03-03 16:02:00,
2013-03-03 09:07:00,46.2,13.3,29.83,SSE,162,2.0,12.0,26,0.00,,,0.00,meteohub,2013-03-03 16:07:00,
2013-03-03 09:12:00,47.1,12.2,29.83,ESE,118,9.0,12.0,24,0.00,,,0.00,meteohub,2013-03-03 16:12:00,
2013-03-03 09:17:00,47.8,13.6,29.83,East,90,8.0,11.0,25,0.00,,,0.00,meteohub,2013-03-03 16:17:00,
2013-03-03 09:22:00,48.0,13.8,29.83,ENE,65,10.0,13.0,25,0.00,,,0.00,meteohub,2013-03-03 16:22:00,
2013-03-03 09:27:00,47.7,13.5,29.83,NNE,25,7.0,20.0,25,0.00,,,0.00,meteohub,2013-03-03 16:27:00,
2013-03-03 09:32:00,47.3,14.2,29.83,North,358,10.0,20.0,26,0.00,,,0.00,meteohub,2013-03-03 16:32:00,
2013-03-03 09:37:00,47.8,12.7,29.82,ENE,77,4.0,20.0,24,0.00,,,0.00,meteohub,2013-03-03 16:37:00,
2013-03-03 09:42:00,47.8,13.6,29.81,NNE,32,6.0,17.0,25,0.00,,,0.00,meteohub,2013-03-03 16:42:00,
2013-03-03 09:47:00,47.7,12.6,29.81,NE,36,3.0,14.0,24,0.00,,,0.00,meteohub,2013-03-03 16:47:00,
2013-03-03 09:52:00,48.0,10.9,29.81,ENE,60,7.0,11.0,22,0.00,,,0.00,meteohub,2013-03-03 16:52:00,
2013-03-03 09:57:00,48.7,11.7,29.81,ENE,60,8.0,19.0,22,0.00,,,0.00,meteohub,2013-03-03 16:57:00,
2013-03-03 10:02:00,48.9,11.7,29.81,SE,129,6.0,19.0,22,0.00,,,0.00,meteohub,2013-03-03 17:02:00,
2013-03-03 10:07:00,49.5,10.0,29.80,NNW,340,2.0,13.0,20,0.00,,,0.00,meteohub,2013-03-03 17:07:00,
2013-03-03 10:12:00,49.3,10.9,29.81,East,79,9.0,13.0,21,0.00,,,0.00,meteohub,2013-03-03 17:12:00,
2013-03-03 10:17:00,48.9,11.7,29.81,North,356,7.0,12.0,22,0.00,,,0.00,meteohub,2013-03-03 17:17:00,
2013-03-03 10:22:00,48.6,10.4,29.80,NE,37,9.0,11.0,21,0.00,,,0.00,meteohub,2013-03-03 17:22:00,
2013-03-03 10:27:00,48.0,10.9,29.79,NE,38,9.0,16.0,22,0.00,,,0.00,meteohub,2013-03-03 17:27:00,
2013-03-03 10:32:00,47.5,13.5,29.79,NNE,19,7.0,17.0,25,0.00,,,0.00,meteohub,2013-03-03 17:32:00,
2013-03-03 10:37:00,46.8,13.6,29.80,NE,45,8.0,18.0,26,0.00,,,0.00,meteohub,2013-03-03 17:37:00,
2013-03-03 10:42:00,46.6,13.5,29.81,NE,51,4.0,18.0,26,0.00,,,0.00,meteohub,2013-03-03 17:42:00,
2013-03-03 10:47:00,46.8,12.7,29.80,West,281,2.0,16.0,25,0.00,,,0.00,meteohub,2013-03-03 17:47:00,
2013-03-03 10:53:00,47.5,10.6,29.80,SSW,211,1.0,16.0,22,0.00,,,0.00,meteohub,2013-03-03 17:53:00,
2013-03-03 10:58:00,47.8,11.8,29.80,North,11,12.0,13.0,23,0.00,,,0.00,meteohub,2013-03-03 17:58:00,
2013-03-03 11:04:00,47.1,11.1,29.79,NE,43,14.0,36.0,23,0.00,,,0.00,meteohub,2013-03-03 18:04:00,
2013-03-03 11:09:00,46.9,11.1,29.79,NW,314,11.0,36.0,23,0.00,,,0.00,meteohub,2013-03-03 18:09:00,
2013-03-03 11:15:00,46.4,11.5,29.78,NW,318,21.0,34.0,24,0.00,,,0.00,meteohub,2013-03-03 18:15:00,
2013-03-03 11:20:00,45.9,12.9,29.79,NNW,333,13.0,40.0,26,0.00,,,0.00,meteohub,2013-03-03 18:20:00,
2013-03-03 11:26:00,45.9,12.0,29.79,NW,316,5.0,40.0,25,0.00,,,0.00,meteohub,2013-03-03 18:26:00,
2013-03-03 11:31:00,46.0,13.1,29.78,NW,309,3.0,40.0,26,0.00,,,0.00,meteohub,2013-03-03 18:31:00,
2013-03-03 11:37:00,46.6,12.6,29.78,WNW,297,10.0,26.0,25,0.00,,,0.00,meteohub,2013-03-03 18:37:00,
2013-03-03 11:42:00,46.9,12.0,29.78,West,278,4.0,28.0,24,0.00,,,0.00,meteohub,2013-03-03 18:42:00,
2013-03-03 11:47:00,46.9,12.9,29.78,NW,305,8.0,28.0,25,0.00,,,0.00,meteohub,2013-03-03 18:47:00,
2013-03-03 11:52:00,46.9,13.8,29.77,NNW,336,15.0,28.0,26,0.00,,,0.00,meteohub,2013-03-03 18:52:00,
2013-03-03 11:57:00,46.8,13.6,29.77,NNW,328,7.0,27.0,26,0.00,,,0.00,meteohub,2013-03-03 18:57:00,
2013-03-03 12:02:00,47.1,13.1,29.76,NW,316,4.0,26.0,25,0.00,,,0.00,meteohub,2013-03-03 19:02:00,
2013-03-03 12:08:00,47.7,14.4,29.75,NNW,331,6.0,26.0,26,0.00,,,0.00,meteohub,2013-03-03 19:08:00,
2013-03-03 12:13:00,47.7,13.5,29.76,SSW,203,3.0,23.0,25,0.00,,,0.00,meteohub,2013-03-03 19:13:00,
2013-03-03 12:19:00,48.6,13.5,29.74,SE,124,16.0,16.0,24,0.00,,,0.00,meteohub,2013-03-03 19:19:00,
2013-03-03 12:24:00,47.7,12.6,29.75,SSE,162,3.0,13.0,24,0.00,,,0.00,meteohub,2013-03-03 19:24:00,
2013-03-03 12:30:00,47.5,13.5,29.75,SSE,153,0.0,23.0,25,0.00,,,0.00,meteohub,2013-03-03 19:30:00,
2013-03-03 12:35:00,47.8,13.6,29.73,NNE,29,14.0,18.0,25,0.00,,,0.00,meteohub,2013-03-03 19:35:00,
2013-03-03 12:41:00,47.5,15.1,29.73,NW,318,6.0,18.0,27,0.00,,,0.00,meteohub,2013-03-03 19:41:00,
2013-03-03 12:46:00,46.8,13.6,29.71,NNE,22,12.0,47.0,26,0.00,,,0.00,meteohub,2013-03-03 19:46:00,
2013-03-03 12:52:00,46.6,16.0,29.70,NNW,330,19.0,47.0,29,0.00,,,0.00,meteohub,2013-03-03 19:52:00,
2013-03-03 12:57:00,46.4,15.1,29.69,WNW,301,9.0,47.0,28,0.00,,,0.00,meteohub,2013-03-03 19:57:00,
2013-03-03 13:02:00,46.6,14.4,29.70,NNW,330,3.0,35.0,27,0.00,,,0.00,meteohub,2013-03-03 20:02:00,
2013-03-03 13:07:00,46.9,14.7,29.70,WNW,285,7.0,29.0,27,0.00,,,0.00,meteohub,2013-03-03 20:07:00,
2013-03-03 13:12:00,46.9,14.7,29.67,East,94,15.0,24.0,27,0.00,,,0.00,meteohub,2013-03-03 20:12:00,
2013-03-03 13:17:00,46.6,14.4,29.67,SSW,195,6.0,32.0,27,0.00,,,0.00,meteohub,2013-03-03 20:17:00,
2013-03-03 13:22:00,46.8,14.5,29.68,West,264,3.0,32.0,27,0.00,,,0.00,meteohub,2013-03-03 20:22:00,
2013-03-03 13:27:00,47.3,15.1,29.69,West,273,4.0,32.0,27,0.00,,,0.00,meteohub,2013-03-03 20:27:00,
2013-03-03 13:32:00,47.5,14.4,29.71,WSW,255,11.0,25.0,26,0.00,,,0.00,meteohub,2013-03-03 20:32:00,
2013-03-03 13:38:00,47.5,16.0,29.71,NW,309,4.0,23.0,28,0.00,,,0.00,meteohub,2013-03-03 20:38:00,
2013-03-03 13:43:00,47.3,18.1,29.70,NNE,19,12.0,23.0,31,0.00,,,0.00,meteohub,2013-03-03 20:43:00,
2013-03-03 13:49:00,46.9,16.3,29.70,WSW,256,9.0,23.0,29,0.00,,,0.00,meteohub,2013-03-03 20:49:00,
2013-03-03 13:54:00,46.8,17.8,29.69,West,278,18.0,25.0,31,0.00,,,0.00,meteohub,2013-03-03 20:54:00,
2013-03-03 14:00:00,47.1,16.5,29.67,WSW,252,24.0,25.0,29,0.00,,,0.00,meteohub,2013-03-03 21:00:00,
2013-03-03 14:05:00,48.2,17.4,29.68,SW,232,23.0,32.0,29,0.00,,,0.00,meteohub,2013-03-03 21:05:00,
2013-03-03 14:11:00,48.4,17.6,29.68,SSW,211,17.0,32.0,29,0.00,,,0.00,meteohub,2013-03-03 21:11:00,
2013-03-03 14:16:00,48.6,18.5,29.69,SSW,200,7.0,29.0,30,0.00,,,0.00,meteohub,2013-03-03 21:16:00,
2013-03-03 14:22:00,48.9,18.0,29.69,WSW,240,15.0,29.0,29,0.00,,,0.00,meteohub,2013-03-03 21:22:00,
2013-03-03 14:27:00,48.7,18.7,29.69,SSW,201,13.0,24.0,30,0.00,,,0.00,meteohub,2013-03-03 21:27:00,
2013-03-03 14:32:00,48.0,18.1,29.68,West,260,4.0,24.0,30,0.00,,,0.00,meteohub,2013-03-03 21:32:00,
2013-03-03 14:37:00,47.7,17.8,29.68,SW,226,15.0,20.0,30,0.00,,,0.00,meteohub,2013-03-03 21:37:00,
2013-03-03 14:43:00,47.3,17.4,29.69,NNE,12,5.0,19.0,30,0.00,,,0.00,meteohub,2013-03-03 21:43:00,
2013-03-03 14:48:00,46.6,18.3,29.68,SW,221,9.0,18.0,32,0.00,,,0.00,meteohub,2013-03-03 21:48:00,
2013-03-03 14:54:00,46.8,18.5,29.69,South,178,2.0,32.0,32,0.00,,,0.00,meteohub,2013-03-03 21:54:00,
2013-03-03 14:59:00,46.9,18.7,29.69,NE,46,3.0,32.0,32,0.00,,,0.00,meteohub,2013-03-03 21:59:00,
2013-03-03 15:05:00,46.4,18.9,29.69,WNW,292,11.0,28.0,33,0.00,,,0.00,meteohub,2013-03-03 22:05:00,
2013-03-03 15:10:00,45.9,18.3,29.69,WSW,240,3.0,26.0,33,0.00,,,0.00,meteohub,2013-03-03 22:10:00,
2013-03-03 15:15:00,46.0,19.2,29.68,NW,314,10.0,23.0,34,0.00,,,0.00,meteohub,2013-03-03 22:15:00,
2013-03-03 15:21:00,46.0,19.2,29.69,NW,312,1.0,23.0,34,0.00,,,0.00,meteohub,2013-03-03 22:21:00,
2013-03-03 15:26:00,46.0,19.2,29.69,West,276,7.0,23.0,34,0.00,,,0.00,meteohub,2013-03-03 22:26:00,
2013-03-03 15:32:00,46.0,19.2,29.70,NNW,348,1.0,21.0,34,0.00,,,0.00,meteohub,2013-03-03 22:32:00,
2013-03-03 15:37:00,46.0,18.5,29.69,SSW,211,2.0,18.0,33,0.00,,,0.00,meteohub,2013-03-03 22:37:00,
2013-03-03 15:42:00,46.6,19.0,29.68,NE,38,2.0,16.0,33,0.00,,,0.00,meteohub,2013-03-03 22:42:00,
2013-03-03 15:47:00,46.6,19.0,29.69,SW,226,6.0,20.0,33,0.00,,,0.00,meteohub,2013-03-03 22:47:00,
2013-03-03 15:52:00,46.2,18.7,29.70,SW,236,7.0,24.0,33,0.00,,,0.00,meteohub,2013-03-03 22:52:00,
2013-03-03 15:57:00,46.2,18.7,29.69,West,267,14.0,24.0,33,0.00,,,0.00,meteohub,2013-03-03 22:57:00,
2013-03-03 16:02:00,46.0,19.2,29.69,WSW,241,10.0,23.0,34,0.00,,,0.00,meteohub,2013-03-03 23:02:00,
2013-03-03 16:07:00,46.9,19.4,29.69,NW,318,2.0,20.0,33,0.00,,,0.00,meteohub,2013-03-03 23:07:00,
2013-03-03 16:12:00,46.2,18.7,29.69,WNW,300,10.0,20.0,33,0.00,,,0.00,meteohub,2013-03-03 23:12:00,
2013-03-03 16:17:00,46.4,18.9,29.69,SW,225,1.0,19.0,33,0.00,,,0.00,meteohub,2013-03-03 23:17:00,
2013-03-03 16:22:00,46.6,19.8,29.70,West,259,4.0,19.0,34,0.00,,,0.00,meteohub,2013-03-03 23:22:00,
2013-03-03 16:27:00,45.3,18.7,29.69,SW,222,3.0,20.0,34,0.00,,,0.00,meteohub,2013-03-03 23:27:00,
2013-03-03 16:32:00,44.4,19.0,29.69,SW,221,4.0,20.0,36,0.00,,,0.00,meteohub,2013-03-03 23:32:00,
2013-03-03 16:37:00,43.9,18.7,29.69,SSE,150,2.0,20.0,36,0.00,,,0.00,meteohub,2013-03-03 23:37:00,
2013-03-03 16:42:00,43.5,19.0,29.70,West,281,6.0,15.0,37,0.00,,,0.00,meteohub,2013-03-03 23:42:00,
2013-03-03 16:47:00,43.2,19.2,29.70,West,270,3.0,16.0,38,0.00,,,0.00,meteohub,2013-03-03 23:47:00,
2013-03-03 16:52:00,43.2,19.2,29.70,SSW,201,0.0,16.0,38,0.00,,,0.00,meteohub,2013-03-03 23:52:00,
2013-03-03 16:57:00,43.0,19.8,29.70,WSW,255,2.0,16.0,39,0.00,,,0.00,meteohub,2013-03-03 23:57:00,
2013-03-03 17:02:00,42.6,18.9,29.70,WSW,245,7.0,15.0,38,0.00,,,0.00,meteohub,2013-03-04 00:02:00,
2013-03-03 17:07:00,42.4,19.2,29.70,West,262,5.0,13.0,39,0.00,,,0.00,meteohub,2013-03-04 00:07:00,
2013-03-03 17:12:00,42.1,20.1,29.70,WSW,257,3.0,15.0,41,0.00,,,0.00,meteohub,2013-03-04 00:12:00,
2013-03-03 17:17:00,41.7,19.2,29.70,SW,223,7.0,15.0,40,0.00,,,0.00,meteohub,2013-03-04 00:17:00,
2013-03-03 17:22:00,41.7,19.2,29.70,SSW,203,4.0,14.0,40,0.00,,,0.00,meteohub,2013-03-04 00:22:00,
2013-03-03 17:27:00,41.7,19.8,29.70,SW,236,4.0,12.0,41,0.00,,,0.00,meteohub,2013-03-04 00:27:00,
2013-03-03 17:32:00,41.5,19.6,29.70,West,269,8.0,12.0,41,0.00,,,0.00,meteohub,2013-03-04 00:32:00,
2013-03-03 17:37:00,41.5,19.6,29.70,SW,226,1.0,13.0,41,0.00,,,0.00,meteohub,2013-03-04 00:37:00,
2013-03-03 17:42:00,41.4,19.9,29.70,NNW,337,2.0,13.0,42,0.00,,,0.00,meteohub,2013-03-04 00:42:00,
2013-03-03 17:47:00,40.8,20.1,29.70,WNW,282,5.0,13.0,43,0.00,,,0.00,meteohub,2013-03-04 00:47:00,
2013-03-03 17:52:00,40.6,19.9,29.70,SSW,200,4.0,12.0,43,0.00,,,0.00,meteohub,2013-03-04 00:52:00,
2013-03-03 17:57:00,40.5,20.3,29.70,SSE,166,2.0,14.0,44,0.00,,,0.00,meteohub,2013-03-04 00:57:00,
2013-03-03 18:02:00,40.3,20.1,29.70,SSW,207,8.0,15.0,44,0.00,,,0.00,meteohub,2013-03-04 01:02:00,
2013-03-03 18:08:00,39.9,19.8,29.71,SSE,150,3.0,15.0,44,0.00,,,0.00,meteohub,2013-03-04 01:08:00,
2013-03-03 18:13:00,39.7,20.1,29.72,ESE,112,0.0,15.0,45,0.00,,,0.00,meteohub,2013-03-04 01:13:00,
2013-03-03 18:19:00,39.6,20.5,29.71,SSW,200,1.0,10.0,46,0.00,,,0.00,meteohub,2013-03-04 01:19:00,
2013-03-03 18:24:00,39.0,20.5,29.71,SSE,152,4.0,7.0,47,0.00,,,0.00,meteohub,2013-03-04 01:24:00,
2013-03-03 18:30:00,38.5,21.0,29.72,WSW,238,6.0,10.0,49,0.00,,,0.00,meteohub,2013-03-04 01:30:00,
2013-03-03 18:35:00,38.1,21.2,29.73,SSE,165,5.0,10.0,50,0.00,,,0.00,meteohub,2013-03-04 01:35:00,
2013-03-03 18:41:00,37.9,21.4,29.73,ESE,112,1.0,10.0,51,0.00,,,0.00,meteohub,2013-03-04 01:41:00,
2013-03-03 18:46:00,37.6,22.5,29.73,ESE,107,4.0,9.0,54,0.00,,,0.00,meteohub,2013-03-04 01:46:00,
2013-03-03 18:52:00,37.2,23.4,29.73,NE,55,11.0,11.0,57,0.00,,,0.00,meteohub,2013-03-04 01:52:00,
2013-03-03 18:57:00,36.7,24.1,29.74,NE,40,10.0,15.0,60,0.00,,,0.00,meteohub,2013-03-04 01:57:00,
2013-03-03 19:02:00,36.5,24.8,29.74,NNE,20,9.0,16.0,62,0.00,,,0.00,meteohub,2013-03-04 02:02:00,
2013-03-03 19:07:00,36.7,24.1,29.74,NW,321,2.0,17.0,60,0.00,,,0.00,meteohub,2013-03-04 02:07:00,
2013-03-03 19:12:00,36.3,24.1,29.74,West,267,2.0,17.0,61,0.00,,,0.00,meteohub,2013-03-04 02:12:00,
2013-03-03 19:17:00,36.1,24.1,29.74,NW,318,2.0,16.0,61,0.00,,,0.00,meteohub,2013-03-04 02:17:00,
2013-03-03 19:23:00,36.3,24.1,29.74,East,95,2.0,6.0,61,0.00,,,0.00,meteohub,2013-03-04 02:23:00,
2013-03-03 19:28:00,36.3,24.1,29.74,NNE,19,4.0,5.0,61,0.00,,,0.00,meteohub,2013-03-04 02:28:00,
2013-03-03 19:34:00,36.3,23.7,29.74,NNE,13,6.0,9.0,60,0.00,,,0.00,meteohub,2013-03-04 02:34:00,
2013-03-03 19:39:00,36.3,23.7,29.73,NE,38,4.0,12.0,60,0.00,,,0.00,meteohub,2013-03-04 02:39:00,
2013-03-03 19:45:00,36.1,24.8,29.73,NNW,346,8.0,12.0,63,0.00,,,0.00,meteohub,2013-03-04 02:45:00,
2013-03-03 19:50:00,35.8,24.4,29.73,NW,322,7.0,12.0,63,0.00,,,0.00,meteohub,2013-03-04 02:50:00,
2013-03-03 19:56:00,35.2,23.9,29.74,WSW,252,4.0,12.0,63,0.00,,,0.00,meteohub,2013-03-04 02:56:00,
2013-03-03 20:01:00,35.2,23.5,29.74,SSE,148,2.0,11.0,62,0.00,,,0.00,meteohub,2013-03-04 03:01:00,
2013-03-03 20:07:00,34.7,23.7,29.74,SE,132,6.0,8.0,64,0.00,,,0.00,meteohub,2013-03-04 03:07:00,
2013-03-03 20:12:00,34.5,23.9,29.73,SE,146,5.0,10.0,65,0.00,,,0.00,meteohub,2013-03-04 03:12:00,
2013-03-03 20:17:00,34.3,23.4,29.74,SE,138,3.0,10.0,64,0.00,,,0.00,meteohub,2013-03-04 03:17:00,
2013-03-03 20:22:00,34.5,23.5,29.73,ENE,61,6.0,10.0,64,0.00,,,0.00,meteohub,2013-03-04 03:22:00,
2013-03-03 20:28:00,34.9,23.5,29.74,East,100,7.0,10.0,63,0.00,,,0.00,meteohub,2013-03-04 03:28:00,
2013-03-03 20:33:00,34.7,23.7,29.74,ESE,121,5.0,10.0,64,0.00,,,0.00,meteohub,2013-03-04 03:33:00,
2013-03-03 20:39:00,34.3,23.7,29.74,SSE,148,4.0,10.0,65,0.00,,,0.00,meteohub,2013-03-04 03:39:00,
2013-03-03 20:44:00,34.0,23.9,29.74,SE,136,2.0,10.0,66,0.00,,,0.00,meteohub,2013-03-04 03:44:00,
2013-03-03 20:50:00,33.6,23.9,29.75,South,176,0.0,10.0,67,0.00,,,0.00,meteohub,2013-03-04 03:50:00,
2013-03-03 20:55:00,33.3,23.9,29.75,SSE,148,4.0,4.0,68,0.00,,,0.00,meteohub,2013-03-04 03:55:00,
2013-03-03 21:01:00,33.1,23.7,29.74,ESE,111,3.0,7.0,68,0.00,,,0.00,meteohub,2013-03-04 04:01:00,
2013-03-03 21:06:00,33.3,23.9,29.75,SE,137,3.0,7.0,68,0.00,,,0.00,meteohub,2013-03-04 04:06:00,
2013-03-03 21:11:00,33.3,23.9,29.75,SW,236,2.0,6.0,68,0.00,,,0.00,meteohub,2013-03-04 04:11:00,
2013-03-03 21:17:00,32.9,23.9,29.75,South,174,3.0,3.0,69,0.00,,,0.00,meteohub,2013-03-04 04:17:00,
2013-03-03 21:22:00,33.3,23.9,29.75,SE,132,4.0,5.0,68,0.00,,,0.00,meteohub,2013-03-04 04:22:00,
2013-03-03 21:27:00,33.3,23.9,29.75,WSW,242,1.0,6.0,68,0.00,,,0.00,meteohub,2013-03-04 04:27:00,
2013-03-03 21:32:00,32.9,23.5,29.74,SSE,165,1.0,6.0,68,0.00,,,0.00,meteohub,2013-03-04 04:32:00,
2013-03-03 21:37:00,32.7,23.7,29.74,ESE,114,3.0,6.0,69,0.00,,,0.00,meteohub,2013-03-04 04:37:00,
2013-03-03 21:42:00,32.9,23.5,29.74,SE,131,2.0,8.0,68,0.00,,,0.00,meteohub,2013-03-04 04:42:00,
2013-03-03 21:47:00,32.7,23.4,29.74,SSW,197,1.0,8.0,68,0.00,,,0.00,meteohub,2013-03-04 04:47:00,
2013-03-03 21:52:00,32.7,23.4,29.74,ESE,115,5.0,8.0,68,0.00,,,0.00,meteohub,2013-03-04 04:52:00,
2013-03-03 21:57:00,32.9,23.5,29.74,SSE,150,4.0,7.0,68,0.00,,,0.00,meteohub,2013-03-04 04:57:00,
2013-03-03 22:00:00,32.7,23.4,29.73,SE,129,4.0,8.0,68,0.00,,,0.00,meteohub,2013-03-04 05:00:00,
2013-03-03 22:02:00,32.5,23.2,29.73,SSE,149,2.0,8.0,68,0.00,,,0.00,meteohub,2013-03-04 05:02:00,
2013-03-03 22:08:00,32.2,23.5,29.73,SSE,151,3.0,8.0,70,0.00,,,0.00,meteohub,2013-03-04 05:08:00,
2013-03-03 22:09:00,32.2,23.5,29.73,SE,134,3.0,8.0,70,0.00,,,0.00,meteohub,2013-03-04 05:09:00,
2013-03-03 22:14:00,31.8,23.5,29.73,SE,133,2.0,8.0,71,0.00,,,0.00,meteohub,2013-03-04 05:14:00,
2013-03-03 22:20:00,31.6,23.7,29.73,SE,146,1.0,6.0,72,0.00,,,0.00,meteohub,2013-03-04 05:20:00,
2013-03-03 22:25:00,31.1,23.5,29.73,SSE,152,1.0,5.0,73,0.00,,,0.00,meteohub,2013-03-04 05:25:00,
2013-03-03 22:31:00,30.9,23.9,29.73,SE,140,3.0,5.0,75,0.00,,,0.00,meteohub,2013-03-04 05:31:00,
2013-03-03 22:36:00,31.5,24.4,29.73,ESE,110,2.0,6.0,75,0.00,,,0.00,meteohub,2013-03-04 05:36:00,
2013-03-03 22:42:00,31.3,24.3,29.73,SSE,159,0.0,6.0,75,0.00,,,0.00,meteohub,2013-03-04 05:42:00,
2013-03-03 22:47:00,31.3,24.6,29.72,SE,140,4.0,6.0,76,0.00,,,0.00,meteohub,2013-03-04 05:47:00,
2013-03-03 22:52:00,31.3,24.6,29.72,ESE,116,3.0,6.0,76,0.00,,,0.00,meteohub,2013-03-04 05:52:00,
2013-03-03 22:57:00,31.5,24.8,29.73,ESE,111,0.0,7.0,76,0.00,,,0.00,meteohub,2013-03-04 05:57:00,
2013-03-03 23:02:00,31.1,24.1,29.72,SSE,148,3.0,7.0,75,0.00,,,0.00,meteohub,2013-03-04 06:02:00,
2013-03-03 23:07:00,31.3,24.6,29.72,ESE,113,0.0,7.0,76,0.00,,,0.00,meteohub,2013-03-04 06:07:00,
2013-03-03 23:12:00,31.3,24.3,29.72,SSE,150,1.0,5.0,75,0.00,,,0.00,meteohub,2013-03-04 06:12:00,
2013-03-03 23:17:00,31.1,24.4,29.72,South,184,2.0,5.0,76,0.00,,,0.00,meteohub,2013-03-04 06:17:00,
2013-03-03 23:22:00,31.3,24.6,29.71,SE,141,4.0,5.0,76,0.00,,,0.00,meteohub,2013-03-04 06:22:00,
2013-03-03 23:27:00,31.1,24.4,29.72,SSE,162,2.0,5.0,76,0.00,,,0.00,meteohub,2013-03-04 06:27:00,
2013-03-03 23:32:00,30.9,24.3,29.72,SSE,160,1.0,5.0,76,0.00,,,0.00,meteohub,2013-03-04 06:32:00,
2013-03-03 23:37:00,30.9,24.6,29.72,SE,124,2.0,5.0,77,0.00,,,0.00,meteohub,2013-03-04 06:37:00,
2013-03-03 23:42:00,31.3,24.6,29.71,East,101,3.0,4.0,76,0.00,,,0.00,meteohub,2013-03-04 06:42:00,
2013-03-03 23:47:00,31.5,24.8,29.71,ESE,103,0.0,5.0,76,0.00,,,0.00,meteohub,2013-03-04 06:47:00,
2013-03-03 23:52:00,30.9,24.3,29.71,NW,319,3.0,5.0,76,0.00,,,0.00,meteohub,2013-03-04 06:52:00,
2013-03-03 23:57:00,30.9,24.8,29.71,North,349,3.0,4.0,78,0.00,,,0.00,meteohub,2013-03-04 06:57:00,